sensor_id;sensor_type;location;lat;lon;timestamp;temperature;humidity
48206;DHT22;33995;48.202;16.260;2023-09-19T00:02:12;20.00;99.90
48206;DHT22;33995;48.202;16.260;2023-09-19T00:04:43;19.90;99.90
48206;DHT22;33995;48.202;16.260;2023-09-19T00:07:18;19.70;99.90
48206;DHT22;33995;48.202;16.260;2023-09-19T00:09:54;19.70;99.90
48206;DHT22;33995;48.202;16.260;2023-09-19T00:12:27;19.40;99.90
48206;DHT22;33995;48.202;16.260;2023-09-19T00:15:00;19.30;99.90
48206;DHT22;33995;48.202;16.260;2023-09-19T00:17:33;19.30;99.90
48206;DHT22;33995;48.202;16.260;2023-09-19T00:20:07;19.10;99.90
48206;DHT22;33995;48.202;16.260;2023-09-19T00:22:51;18.90;99.90
48206;DHT22;33995;48.202;16.260;2023-09-19T00:25:21;18.90;99.90
48206;DHT22;33995;48.202;16.260;2023-09-19T00:27:52;18.80;99.90
48206;DHT22;33995;48.202;16.260;2023-09-19T00:30:27;18.60;99.90
48206;DHT22;33995;48.202;16.260;2023-09-19T00:32:58;18.60;99.90
48206;DHT22;33995;48.202;16.260;2023-09-19T00:35:28;18.50;99.90
48206;DHT22;33995;48.202;16.260;2023-09-19T00:37:58;18.40;99.90
48206;DHT22;33995;48.202;16.260;2023-09-19T00:40:29;18.40;99.90
48206;DHT22;33995;48.202;16.260;2023-09-19T00:43:02;18.40;99.90
48206;DHT22;33995;48.202;16.260;2023-09-19T00:45:33;18.30;99.90
48206;DHT22;33995;48.202;16.260;2023-09-19T00:48:04;18.30;99.90
48206;DHT22;33995;48.202;16.260;2023-09-19T00:50:41;18.20;99.90
48206;DHT22;33995;48.202;16.260;2023-09-19T00:53:17;18.20;99.90
48206;DHT22;33995;48.202;16.260;2023-09-19T00:55:50;18.30;99.90
48206;DHT22;33995;48.202;16.260;2023-09-19T00:58:23;18.20;99.90
48206;DHT22;33995;48.202;16.260;2023-09-19T01:00:53;18.10;99.90
48206;DHT22;33995;48.202;16.260;2023-09-19T01:03:22;18.10;99.90
48206;DHT22;33995;48.202;16.260;2023-09-19T01:05:54;18.10;99.90
48206;DHT22;33995;48.202;16.260;2023-09-19T01:08:25;18.00;99.90
48206;DHT22;33995;48.202;16.260;2023-09-19T01:11:12;18.00;99.90
48206;DHT22;33995;48.202;16.260;2023-09-19T01:17:05;18.00;99.90
48206;DHT22;33995;48.202;16.260;2023-09-19T01:23:06;18.00;99.90
48206;DHT22;33995;48.202;16.260;2023-09-19T01:31:46;17.90;99.90
48206;DHT22;33995;48.202;16.260;2023-09-19T01:34:26;17.70;99.90
48206;DHT22;33995;48.202;16.260;2023-09-19T01:36:57;17.70;99.90
48206;DHT22;33995;48.202;16.260;2023-09-19T01:39:28;17.70;99.90
48206;DHT22;33995;48.202;16.260;2023-09-19T01:45:03;17.40;99.90
48206;DHT22;33995;48.202;16.260;2023-09-19T01:47:54;17.50;99.90
48206;DHT22;33995;48.202;16.260;2023-09-19T01:50:59;17.40;99.90
48206;DHT22;33995;48.202;16.260;2023-09-19T01:53:33;17.50;99.90
48206;DHT22;33995;48.202;16.260;2023-09-19T01:56:05;17.50;99.90
48206;DHT22;33995;48.202;16.260;2023-09-19T01:58:59;17.40;99.90
48206;DHT22;33995;48.202;16.260;2023-09-19T02:01:44;17.30;99.90
48206;DHT22;33995;48.202;16.260;2023-09-19T02:04:14;17.20;99.90
48206;DHT22;33995;48.202;16.260;2023-09-19T02:07:09;17.20;99.90
48206;DHT22;33995;48.202;16.260;2023-09-19T02:09:39;17.20;99.90
48206;DHT22;33995;48.202;16.260;2023-09-19T02:12:13;17.20;99.90
48206;DHT22;33995;48.202;16.260;2023-09-19T02:14:45;17.10;99.90
48206;DHT22;33995;48.202;16.260;2023-09-19T02:17:16;17.10;99.90
48206;DHT22;33995;48.202;16.260;2023-09-19T02:19:46;17.10;99.90
48206;DHT22;33995;48.202;16.260;2023-09-19T02:22:15;17.10;99.90
48206;DHT22;33995;48.202;16.260;2023-09-19T02:24:44;17.00;99.90
48206;DHT22;33995;48.202;16.260;2023-09-19T02:27:20;17.00;99.90
48206;DHT22;33995;48.202;16.260;2023-09-19T02:29:50;17.10;99.90
48206;DHT22;33995;48.202;16.260;2023-09-19T02:32:23;17.10;99.90
48206;DHT22;33995;48.202;16.260;2023-09-19T02:34:53;17.10;99.90
48206;DHT22;33995;48.202;16.260;2023-09-19T02:37:34;17.10;99.90
48206;DHT22;33995;48.202;16.260;2023-09-19T02:40:10;17.20;99.90
48206;DHT22;33995;48.202;16.260;2023-09-19T02:43:06;17.20;99.90
48206;DHT22;33995;48.202;16.260;2023-09-19T02:45:38;17.10;99.90
48206;DHT22;33995;48.202;16.260;2023-09-19T02:48:10;17.20;99.90
48206;DHT22;33995;48.202;16.260;2023-09-19T02:50:53;17.20;99.90
48206;DHT22;33995;48.202;16.260;2023-09-19T02:53:23;17.20;99.90
48206;DHT22;33995;48.202;16.260;2023-09-19T02:55:55;17.20;99.90
48206;DHT22;33995;48.202;16.260;2023-09-19T02:58:26;17.20;99.90
48206;DHT22;33995;48.202;16.260;2023-09-19T03:01:10;17.20;99.90
48206;DHT22;33995;48.202;16.260;2023-09-19T03:03:44;17.20;99.90
48206;DHT22;33995;48.202;16.260;2023-09-19T03:06:15;17.20;99.90
48206;DHT22;33995;48.202;16.260;2023-09-19T03:08:52;17.30;99.90
48206;DHT22;33995;48.202;16.260;2023-09-19T03:11:23;17.30;99.90
48206;DHT22;33995;48.202;16.260;2023-09-19T03:13:57;17.30;99.90
48206;DHT22;33995;48.202;16.260;2023-09-19T03:16:31;17.30;99.90
48206;DHT22;33995;48.202;16.260;2023-09-19T03:19:01;17.30;99.90
48206;DHT22;33995;48.202;16.260;2023-09-19T03:21:34;17.30;99.90
48206;DHT22;33995;48.202;16.260;2023-09-19T03:24:07;17.30;99.90
48206;DHT22;33995;48.202;16.260;2023-09-19T03:26:41;17.40;99.90
48206;DHT22;33995;48.202;16.260;2023-09-19T03:29:16;17.30;99.90
48206;DHT22;33995;48.202;16.260;2023-09-19T03:31:49;17.40;99.90
48206;DHT22;33995;48.202;16.260;2023-09-19T03:34:19;17.30;99.90
48206;DHT22;33995;48.202;16.260;2023-09-19T03:36:54;17.40;99.90
48206;DHT22;33995;48.202;16.260;2023-09-19T03:39:26;17.40;99.90
48206;DHT22;33995;48.202;16.260;2023-09-19T03:41:58;17.40;99.90
48206;DHT22;33995;48.202;16.260;2023-09-19T03:44:27;17.50;99.90
48206;DHT22;33995;48.202;16.260;2023-09-19T03:46:59;17.50;99.90
48206;DHT22;33995;48.202;16.260;2023-09-19T03:49:32;17.50;99.90
48206;DHT22;33995;48.202;16.260;2023-09-19T03:52:02;17.50;99.90
48206;DHT22;33995;48.202;16.260;2023-09-19T03:54:31;17.50;99.90
48206;DHT22;33995;48.202;16.260;2023-09-19T03:57:02;17.40;99.90
48206;DHT22;33995;48.202;16.260;2023-09-19T03:59:40;17.40;99.90
48206;DHT22;33995;48.202;16.260;2023-09-19T04:02:13;17.40;99.90
48206;DHT22;33995;48.202;16.260;2023-09-19T04:04:56;17.40;99.90
48206;DHT22;33995;48.202;16.260;2023-09-19T04:07:26;17.40;99.90
48206;DHT22;33995;48.202;16.260;2023-09-19T04:09:57;17.50;99.90
48206;DHT22;33995;48.202;16.260;2023-09-19T04:12:28;17.50;99.90
48206;DHT22;33995;48.202;16.260;2023-09-19T04:15:05;17.40;99.90
48206;DHT22;33995;48.202;16.260;2023-09-19T04:17:36;17.50;99.90
48206;DHT22;33995;48.202;16.260;2023-09-19T04:20:07;17.50;99.90
48206;DHT22;33995;48.202;16.260;2023-09-19T04:22:36;17.50;99.90
48206;DHT22;33995;48.202;16.260;2023-09-19T04:25:08;17.50;99.90
48206;DHT22;33995;48.202;16.260;2023-09-19T04:27:39;17.30;99.90
48206;DHT22;33995;48.202;16.260;2023-09-19T04:30:12;17.40;99.90
48206;DHT22;33995;48.202;16.260;2023-09-19T04:32:46;17.40;99.90
48206;DHT22;33995;48.202;16.260;2023-09-19T04:35:21;17.40;99.90
48206;DHT22;33995;48.202;16.260;2023-09-19T04:37:51;17.40;99.90
48206;DHT22;33995;48.202;16.260;2023-09-19T04:40:26;17.40;99.90
48206;DHT22;33995;48.202;16.260;2023-09-19T04:43:01;17.40;99.90
48206;DHT22;33995;48.202;16.260;2023-09-19T04:45:31;17.40;99.90
48206;DHT22;33995;48.202;16.260;2023-09-19T04:48:13;17.30;99.90
48206;DHT22;33995;48.202;16.260;2023-09-19T04:50:43;17.30;99.90
48206;DHT22;33995;48.202;16.260;2023-09-19T04:53:14;17.30;99.90
48206;DHT22;33995;48.202;16.260;2023-09-19T04:55:44;17.40;99.90
48206;DHT22;33995;48.202;16.260;2023-09-19T04:58:12;17.40;99.90
48206;DHT22;33995;48.202;16.260;2023-09-19T05:00:41;17.40;99.90
48206;DHT22;33995;48.202;16.260;2023-09-19T05:03:08;17.30;99.90
48206;DHT22;33995;48.202;16.260;2023-09-19T05:05:36;17.30;99.90
48206;DHT22;33995;48.202;16.260;2023-09-19T05:08:09;17.30;99.90
48206;DHT22;33995;48.202;16.260;2023-09-19T05:10:40;17.10;99.90
48206;DHT22;33995;48.202;16.260;2023-09-19T05:13:11;17.10;99.90
48206;DHT22;33995;48.202;16.260;2023-09-19T05:15:43;17.10;99.90
48206;DHT22;33995;48.202;16.260;2023-09-19T05:18:15;17.00;99.90
48206;DHT22;33995;48.202;16.260;2023-09-19T05:20:46;17.00;99.90
48206;DHT22;33995;48.202;16.260;2023-09-19T05:23:15;16.90;99.90
48206;DHT22;33995;48.202;16.260;2023-09-19T05:25:47;17.00;99.90
48206;DHT22;33995;48.202;16.260;2023-09-19T05:28:29;16.90;99.90
48206;DHT22;33995;48.202;16.260;2023-09-19T05:31:04;17.00;99.90
48206;DHT22;33995;48.202;16.260;2023-09-19T05:33:39;17.00;99.90
48206;DHT22;33995;48.202;16.260;2023-09-19T05:36:09;16.90;99.90
48206;DHT22;33995;48.202;16.260;2023-09-19T05:38:53;16.90;99.90
48206;DHT22;33995;48.202;16.260;2023-09-19T05:41:21;16.90;99.90
48206;DHT22;33995;48.202;16.260;2023-09-19T05:43:55;16.90;99.90
48206;DHT22;33995;48.202;16.260;2023-09-19T05:46:23;16.90;99.90
48206;DHT22;33995;48.202;16.260;2023-09-19T05:48:57;16.90;99.90
48206;DHT22;33995;48.202;16.260;2023-09-19T05:51:28;16.90;99.90
48206;DHT22;33995;48.202;16.260;2023-09-19T05:53:58;16.90;99.90
48206;DHT22;33995;48.202;16.260;2023-09-19T05:56:27;16.90;99.90
48206;DHT22;33995;48.202;16.260;2023-09-19T05:58:57;16.90;99.90
48206;DHT22;33995;48.202;16.260;2023-09-19T06:01:30;16.90;99.90
48206;DHT22;33995;48.202;16.260;2023-09-19T06:04:03;17.00;99.90
48206;DHT22;33995;48.202;16.260;2023-09-19T06:06:33;17.00;99.90
48206;DHT22;33995;48.202;16.260;2023-09-19T06:09:16;17.00;99.90
48206;DHT22;33995;48.202;16.260;2023-09-19T06:11:44;17.10;99.90
48206;DHT22;33995;48.202;16.260;2023-09-19T06:14:12;17.10;99.90
48206;DHT22;33995;48.202;16.260;2023-09-19T06:16:43;17.10;99.90
48206;DHT22;33995;48.202;16.260;2023-09-19T06:19:14;17.10;99.90
48206;DHT22;33995;48.202;16.260;2023-09-19T06:21:44;17.10;99.90
48206;DHT22;33995;48.202;16.260;2023-09-19T06:24:16;17.10;99.90
48206;DHT22;33995;48.202;16.260;2023-09-19T06:26:48;17.20;99.90
48206;DHT22;33995;48.202;16.260;2023-09-19T06:29:21;17.30;99.90
48206;DHT22;33995;48.202;16.260;2023-09-19T06:31:52;17.30;99.90
48206;DHT22;33995;48.202;16.260;2023-09-19T06:34:27;17.30;99.90
48206;DHT22;33995;48.202;16.260;2023-09-19T06:36:59;17.30;99.90
48206;DHT22;33995;48.202;16.260;2023-09-19T06:39:32;17.40;99.90
48206;DHT22;33995;48.202;16.260;2023-09-19T06:42:02;17.40;99.90
48206;DHT22;33995;48.202;16.260;2023-09-19T06:44:38;17.50;99.90
48206;DHT22;33995;48.202;16.260;2023-09-19T06:47:11;17.50;99.90
48206;DHT22;33995;48.202;16.260;2023-09-19T06:49:45;17.50;99.90
48206;DHT22;33995;48.202;16.260;2023-09-19T06:52:16;17.50;99.90
48206;DHT22;33995;48.202;16.260;2023-09-19T06:54:45;17.50;99.90
48206;DHT22;33995;48.202;16.260;2023-09-19T06:57:13;17.60;99.90
48206;DHT22;33995;48.202;16.260;2023-09-19T06:59:50;17.60;99.90
48206;DHT22;33995;48.202;16.260;2023-09-19T07:02:21;17.70;99.90
48206;DHT22;33995;48.202;16.260;2023-09-19T07:04:54;17.70;99.90
48206;DHT22;33995;48.202;16.260;2023-09-19T07:07:26;17.70;99.90
48206;DHT22;33995;48.202;16.260;2023-09-19T07:09:58;17.70;99.90
48206;DHT22;33995;48.202;16.260;2023-09-19T07:12:30;17.70;99.90
48206;DHT22;33995;48.202;16.260;2023-09-19T07:15:06;17.80;99.90
48206;DHT22;33995;48.202;16.260;2023-09-19T07:17:39;17.80;99.90
48206;DHT22;33995;48.202;16.260;2023-09-19T07:20:12;17.80;99.90
48206;DHT22;33995;48.202;16.260;2023-09-19T07:22:53;17.80;99.90
48206;DHT22;33995;48.202;16.260;2023-09-19T07:25:30;17.90;99.90
48206;DHT22;33995;48.202;16.260;2023-09-19T07:27:59;17.90;99.90
48206;DHT22;33995;48.202;16.260;2023-09-19T07:30:32;17.90;99.90
48206;DHT22;33995;48.202;16.260;2023-09-19T07:33:07;17.90;99.90
48206;DHT22;33995;48.202;16.260;2023-09-19T07:35:39;17.90;99.90
48206;DHT22;33995;48.202;16.260;2023-09-19T07:38:12;17.90;99.90
48206;DHT22;33995;48.202;16.260;2023-09-19T07:40:40;17.90;99.90
48206;DHT22;33995;48.202;16.260;2023-09-19T07:43:11;18.00;99.90
48206;DHT22;33995;48.202;16.260;2023-09-19T07:45:42;18.10;99.90
48206;DHT22;33995;48.202;16.260;2023-09-19T07:48:13;18.10;99.90
48206;DHT22;33995;48.202;16.260;2023-09-19T07:50:48;18.20;99.90
48206;DHT22;33995;48.202;16.260;2023-09-19T07:53:17;18.20;99.90
48206;DHT22;33995;48.202;16.260;2023-09-19T07:55:48;18.30;99.90
48206;DHT22;33995;48.202;16.260;2023-09-19T07:58:16;18.40;99.90
48206;DHT22;33995;48.202;16.260;2023-09-19T08:00:48;18.40;99.90
48206;DHT22;33995;48.202;16.260;2023-09-19T08:03:19;18.50;99.90
48206;DHT22;33995;48.202;16.260;2023-09-19T08:05:51;18.60;99.90
48206;DHT22;33995;48.202;16.260;2023-09-19T08:08:21;18.60;99.90
48206;DHT22;33995;48.202;16.260;2023-09-19T08:10:54;18.80;99.90
48206;DHT22;33995;48.202;16.260;2023-09-19T08:13:25;18.80;99.90
48206;DHT22;33995;48.202;16.260;2023-09-19T08:15:54;18.90;99.90
48206;DHT22;33995;48.202;16.260;2023-09-19T08:18:26;18.80;99.90
48206;DHT22;33995;48.202;16.260;2023-09-19T08:20:57;18.90;99.90
48206;DHT22;33995;48.202;16.260;2023-09-19T08:23:31;18.90;99.90
48206;DHT22;33995;48.202;16.260;2023-09-19T08:26:04;19.00;99.90
48206;DHT22;33995;48.202;16.260;2023-09-19T08:28:39;19.10;99.90
48206;DHT22;33995;48.202;16.260;2023-09-19T08:31:11;19.10;99.90
48206;DHT22;33995;48.202;16.260;2023-09-19T08:33:44;19.10;99.90
48206;DHT22;33995;48.202;16.260;2023-09-19T08:36:16;19.20;99.90
48206;DHT22;33995;48.202;16.260;2023-09-19T08:38:47;19.20;99.90
48206;DHT22;33995;48.202;16.260;2023-09-19T08:41:19;19.10;99.90
48206;DHT22;33995;48.202;16.260;2023-09-19T08:43:50;19.10;99.90
48206;DHT22;33995;48.202;16.260;2023-09-19T08:46:27;19.00;99.90
48206;DHT22;33995;48.202;16.260;2023-09-19T08:49:04;19.00;99.90
48206;DHT22;33995;48.202;16.260;2023-09-19T08:52:01;19.00;99.90
48206;DHT22;33995;48.202;16.260;2023-09-19T08:54:40;19.00;99.90
48206;DHT22;33995;48.202;16.260;2023-09-19T08:57:08;19.00;99.90
48206;DHT22;33995;48.202;16.260;2023-09-19T08:59:39;19.10;99.90
48206;DHT22;33995;48.202;16.260;2023-09-19T09:02:12;19.10;99.90
48206;DHT22;33995;48.202;16.260;2023-09-19T09:04:45;19.20;99.90
48206;DHT22;33995;48.202;16.260;2023-09-19T09:07:16;19.20;99.90
48206;DHT22;33995;48.202;16.260;2023-09-19T09:09:48;19.20;99.90
48206;DHT22;33995;48.202;16.260;2023-09-19T09:12:15;19.20;99.90
48206;DHT22;33995;48.202;16.260;2023-09-19T09:14:46;19.30;99.90
48206;DHT22;33995;48.202;16.260;2023-09-19T09:17:23;19.20;99.90
48206;DHT22;33995;48.202;16.260;2023-09-19T09:19:58;19.40;99.90
48206;DHT22;33995;48.202;16.260;2023-09-19T09:22:31;19.40;99.90
48206;DHT22;33995;48.202;16.260;2023-09-19T09:25:05;19.40;99.90
48206;DHT22;33995;48.202;16.260;2023-09-19T09:27:41;19.40;99.90
48206;DHT22;33995;48.202;16.260;2023-09-19T09:30:34;19.60;99.90
48206;DHT22;33995;48.202;16.260;2023-09-19T09:33:14;19.70;99.90
48206;DHT22;33995;48.202;16.260;2023-09-19T09:35:53;19.80;99.90
48206;DHT22;33995;48.202;16.260;2023-09-19T09:39:02;19.90;99.90
48206;DHT22;33995;48.202;16.260;2023-09-19T09:41:44;20.00;99.90
48206;DHT22;33995;48.202;16.260;2023-09-19T09:44:18;20.20;99.90
48206;DHT22;33995;48.202;16.260;2023-09-19T09:46:51;20.30;99.90
48206;DHT22;33995;48.202;16.260;2023-09-19T09:49:24;20.50;99.90
48206;DHT22;33995;48.202;16.260;2023-09-19T09:52:13;20.70;99.90
48206;DHT22;33995;48.202;16.260;2023-09-19T09:55:02;20.90;99.90
48206;DHT22;33995;48.202;16.260;2023-09-19T09:57:35;20.90;99.90
48206;DHT22;33995;48.202;16.260;2023-09-19T10:00:29;20.90;99.90
48206;DHT22;33995;48.202;16.260;2023-09-19T10:03:32;20.80;99.90
48206;DHT22;33995;48.202;16.260;2023-09-19T10:06:08;20.80;99.90
48206;DHT22;33995;48.202;16.260;2023-09-19T10:09:09;20.80;99.90
48206;DHT22;33995;48.202;16.260;2023-09-19T10:12:09;20.70;99.90
48206;DHT22;33995;48.202;16.260;2023-09-19T10:14:44;20.80;99.90
48206;DHT22;33995;48.202;16.260;2023-09-19T10:17:20;20.90;99.90
48206;DHT22;33995;48.202;16.260;2023-09-19T10:19:58;21.10;99.90
48206;DHT22;33995;48.202;16.260;2023-09-19T10:22:40;21.20;99.90
48206;DHT22;33995;48.202;16.260;2023-09-19T10:25:11;21.40;99.90
48206;DHT22;33995;48.202;16.260;2023-09-19T10:27:46;21.40;99.90
48206;DHT22;33995;48.202;16.260;2023-09-19T10:30:13;21.50;99.90
48206;DHT22;33995;48.202;16.260;2023-09-19T10:32:57;21.50;99.90
48206;DHT22;33995;48.202;16.260;2023-09-19T10:35:27;21.40;99.90
48206;DHT22;33995;48.202;16.260;2023-09-19T10:38:07;21.70;99.90
48206;DHT22;33995;48.202;16.260;2023-09-19T10:41:07;22.10;99.90
48206;DHT22;33995;48.202;16.260;2023-09-19T10:43:39;22.50;99.90
48206;DHT22;33995;48.202;16.260;2023-09-19T10:46:13;22.90;99.90
48206;DHT22;33995;48.202;16.260;2023-09-19T10:48:45;23.10;99.90
48206;DHT22;33995;48.202;16.260;2023-09-19T10:51:22;23.30;99.90
48206;DHT22;33995;48.202;16.260;2023-09-19T10:54:13;23.60;99.90
48206;DHT22;33995;48.202;16.260;2023-09-19T10:56:49;23.50;99.90
48206;DHT22;33995;48.202;16.260;2023-09-19T10:59:29;23.50;99.90
48206;DHT22;33995;48.202;16.260;2023-09-19T11:02:21;23.50;99.90
48206;DHT22;33995;48.202;16.260;2023-09-19T11:05:11;23.60;99.90
48206;DHT22;33995;48.202;16.260;2023-09-19T11:07:58;23.90;99.90
48206;DHT22;33995;48.202;16.260;2023-09-19T11:10:50;24.20;99.90
48206;DHT22;33995;48.202;16.260;2023-09-19T11:13:30;24.00;99.90
48206;DHT22;33995;48.202;16.260;2023-09-19T11:16:05;24.20;99.90
48206;DHT22;33995;48.202;16.260;2023-09-19T11:27:13;23.70;99.90
48206;DHT22;33995;48.202;16.260;2023-09-19T11:29:42;23.90;99.90
48206;DHT22;33995;48.202;16.260;2023-09-19T11:32:13;24.30;99.90
48206;DHT22;33995;48.202;16.260;2023-09-19T11:34:51;24.50;99.90
48206;DHT22;33995;48.202;16.260;2023-09-19T11:37:59;25.00;99.90
48206;DHT22;33995;48.202;16.260;2023-09-19T11:40:37;25.20;99.90
48206;DHT22;33995;48.202;16.260;2023-09-19T11:43:27;25.60;99.90
48206;DHT22;33995;48.202;16.260;2023-09-19T11:48:36;26.20;99.90
48206;DHT22;33995;48.202;16.260;2023-09-19T11:51:13;26.20;99.90
48206;DHT22;33995;48.202;16.260;2023-09-19T11:54:00;26.40;99.90
48206;DHT22;33995;48.202;16.260;2023-09-19T11:56:29;26.20;99.90
48206;DHT22;33995;48.202;16.260;2023-09-19T11:59:02;26.20;99.90
48206;DHT22;33995;48.202;16.260;2023-09-19T12:01:49;26.20;99.90
48206;DHT22;33995;48.202;16.260;2023-09-19T12:04:38;26.20;99.90
48206;DHT22;33995;48.202;16.260;2023-09-19T12:07:13;26.30;99.90
48206;DHT22;33995;48.202;16.260;2023-09-19T12:09:50;25.90;99.90
48206;DHT22;33995;48.202;16.260;2023-09-19T12:12:26;26.20;99.90
48206;DHT22;33995;48.202;16.260;2023-09-19T12:14:58;26.30;99.90
48206;DHT22;33995;48.202;16.260;2023-09-19T12:17:41;26.40;99.90
48206;DHT22;33995;48.202;16.260;2023-09-19T12:20:13;26.60;99.90
48206;DHT22;33995;48.202;16.260;2023-09-19T12:22:46;26.60;99.90
48206;DHT22;33995;48.202;16.260;2023-09-19T12:25:18;26.80;99.90
48206;DHT22;33995;48.202;16.260;2023-09-19T12:27:58;26.80;99.90
48206;DHT22;33995;48.202;16.260;2023-09-19T12:30:30;26.90;99.90
48206;DHT22;33995;48.202;16.260;2023-09-19T12:33:20;27.10;99.90
48206;DHT22;33995;48.202;16.260;2023-09-19T12:36:19;27.10;99.90
48206;DHT22;33995;48.202;16.260;2023-09-19T12:39:01;27.00;99.90
48206;DHT22;33995;48.202;16.260;2023-09-19T12:41:40;26.80;99.90
48206;DHT22;33995;48.202;16.260;2023-09-19T12:44:19;26.70;99.90
48206;DHT22;33995;48.202;16.260;2023-09-19T12:46:48;26.60;99.90
48206;DHT22;33995;48.202;16.260;2023-09-19T12:49:19;26.80;99.90
48206;DHT22;33995;48.202;16.260;2023-09-19T12:51:48;26.70;99.90
48206;DHT22;33995;48.202;16.260;2023-09-19T12:54:18;26.70;99.90
48206;DHT22;33995;48.202;16.260;2023-09-19T12:56:51;26.70;99.90
48206;DHT22;33995;48.202;16.260;2023-09-19T12:59:31;26.70;99.90
48206;DHT22;33995;48.202;16.260;2023-09-19T13:02:08;26.20;99.90
48206;DHT22;33995;48.202;16.260;2023-09-19T13:04:57;26.10;99.90
48206;DHT22;33995;48.202;16.260;2023-09-19T13:07:44;26.00;99.90
48206;DHT22;33995;48.202;16.260;2023-09-19T13:10:17;26.10;99.90
48206;DHT22;33995;48.202;16.260;2023-09-19T13:12:55;26.00;99.90
48206;DHT22;33995;48.202;16.260;2023-09-19T13:15:56;25.70;99.90
48206;DHT22;33995;48.202;16.260;2023-09-19T13:18:40;25.40;99.90
48206;DHT22;33995;48.202;16.260;2023-09-19T13:21:17;25.50;99.90
48206;DHT22;33995;48.202;16.260;2023-09-19T13:24:25;25.50;99.90
48206;DHT22;33995;48.202;16.260;2023-09-19T13:26:59;25.70;99.90
48206;DHT22;33995;48.202;16.260;2023-09-19T13:29:31;25.20;99.90
48206;DHT22;33995;48.202;16.260;2023-09-19T13:32:07;25.30;99.90
48206;DHT22;33995;48.202;16.260;2023-09-19T13:34:42;25.30;99.90
48206;DHT22;33995;48.202;16.260;2023-09-19T13:37:11;25.30;99.90
48206;DHT22;33995;48.202;16.260;2023-09-19T13:39:46;25.30;99.90
48206;DHT22;33995;48.202;16.260;2023-09-19T13:42:16;25.40;99.90
48206;DHT22;33995;48.202;16.260;2023-09-19T13:44:46;25.30;99.90
48206;DHT22;33995;48.202;16.260;2023-09-19T13:47:28;25.30;99.90
48206;DHT22;33995;48.202;16.260;2023-09-19T13:50:01;25.30;99.90
48206;DHT22;33995;48.202;16.260;2023-09-19T13:52:36;25.30;99.90
48206;DHT22;33995;48.202;16.260;2023-09-19T13:55:15;25.30;99.90
48206;DHT22;33995;48.202;16.260;2023-09-19T13:57:51;25.30;99.90
48206;DHT22;33995;48.202;16.260;2023-09-19T14:00:25;25.20;99.90
48206;DHT22;33995;48.202;16.260;2023-09-19T14:02:54;25.30;99.90
48206;DHT22;33995;48.202;16.260;2023-09-19T14:05:26;25.30;99.90
48206;DHT22;33995;48.202;16.260;2023-09-19T14:08:11;25.30;99.90
48206;DHT22;33995;48.202;16.260;2023-09-19T14:10:42;25.30;99.90
48206;DHT22;33995;48.202;16.260;2023-09-19T14:13:11;25.50;99.90
48206;DHT22;33995;48.202;16.260;2023-09-19T14:15:48;25.60;99.90
48206;DHT22;33995;48.202;16.260;2023-09-19T14:18:18;25.90;99.90
48206;DHT22;33995;48.202;16.260;2023-09-19T14:20:51;25.80;99.90
48206;DHT22;33995;48.202;16.260;2023-09-19T14:23:26;25.50;99.90
48206;DHT22;33995;48.202;16.260;2023-09-19T14:26:02;25.60;99.90
48206;DHT22;33995;48.202;16.260;2023-09-19T14:28:37;26.60;99.90
48206;DHT22;33995;48.202;16.260;2023-09-19T14:31:14;26.90;99.90
48206;DHT22;33995;48.202;16.260;2023-09-19T14:33:52;26.80;99.90
48206;DHT22;33995;48.202;16.260;2023-09-19T14:36:22;26.90;99.90
48206;DHT22;33995;48.202;16.260;2023-09-19T14:38:53;27.10;99.90
48206;DHT22;33995;48.202;16.260;2023-09-19T14:41:35;27.30;99.90
48206;DHT22;33995;48.202;16.260;2023-09-19T14:44:06;27.70;99.90
48206;DHT22;33995;48.202;16.260;2023-09-19T14:46:42;27.40;99.90
48206;DHT22;33995;48.202;16.260;2023-09-19T14:49:18;27.10;99.90
48206;DHT22;33995;48.202;16.260;2023-09-19T14:51:47;26.70;99.90
48206;DHT22;33995;48.202;16.260;2023-09-19T14:54:18;26.20;99.90
48206;DHT22;33995;48.202;16.260;2023-09-19T14:56:49;26.10;99.90
48206;DHT22;33995;48.202;16.260;2023-09-19T14:59:26;26.00;99.90
48206;DHT22;33995;48.202;16.260;2023-09-19T15:02:01;26.10;99.90
48206;DHT22;33995;48.202;16.260;2023-09-19T15:04:31;25.60;99.90
48206;DHT22;33995;48.202;16.260;2023-09-19T15:07:04;25.40;99.90
48206;DHT22;33995;48.202;16.260;2023-09-19T15:09:38;25.30;99.90
48206;DHT22;33995;48.202;16.260;2023-09-19T15:12:12;25.20;99.90
48206;DHT22;33995;48.202;16.260;2023-09-19T15:14:42;25.00;99.90
48206;DHT22;33995;48.202;16.260;2023-09-19T15:17:20;25.10;99.90
48206;DHT22;33995;48.202;16.260;2023-09-19T15:20:01;24.90;99.90
48206;DHT22;33995;48.202;16.260;2023-09-19T15:22:35;24.70;99.90
48206;DHT22;33995;48.202;16.260;2023-09-19T15:25:07;24.50;99.90
48206;DHT22;33995;48.202;16.260;2023-09-19T15:27:38;24.50;99.90
48206;DHT22;33995;48.202;16.260;2023-09-19T15:30:14;24.40;99.90
48206;DHT22;33995;48.202;16.260;2023-09-19T15:32:53;24.30;99.90
48206;DHT22;33995;48.202;16.260;2023-09-19T15:35:25;24.20;99.90
48206;DHT22;33995;48.202;16.260;2023-09-19T15:37:59;24.00;99.90
48206;DHT22;33995;48.202;16.260;2023-09-19T15:40:36;23.90;99.90
48206;DHT22;33995;48.202;16.260;2023-09-19T15:43:18;23.70;99.90
48206;DHT22;33995;48.202;16.260;2023-09-19T15:46:08;23.60;99.90
48206;DHT22;33995;48.202;16.260;2023-09-19T15:48:57;23.50;99.90
48206;DHT22;33995;48.202;16.260;2023-09-19T15:51:32;23.30;99.90
48206;DHT22;33995;48.202;16.260;2023-09-19T15:54:16;23.20;99.90
48206;DHT22;33995;48.202;16.260;2023-09-19T15:56:51;23.30;99.90
48206;DHT22;33995;48.202;16.260;2023-09-19T15:59:25;23.20;99.90
48206;DHT22;33995;48.202;16.260;2023-09-19T16:01:58;23.20;99.90
48206;DHT22;33995;48.202;16.260;2023-09-19T16:04:40;23.10;99.90
48206;DHT22;33995;48.202;16.260;2023-09-19T16:07:29;23.00;99.90
48206;DHT22;33995;48.202;16.260;2023-09-19T16:10:11;23.00;99.90
48206;DHT22;33995;48.202;16.260;2023-09-19T16:12:51;22.90;99.90
48206;DHT22;33995;48.202;16.260;2023-09-19T16:15:22;22.70;99.90
48206;DHT22;33995;48.202;16.260;2023-09-19T16:18:00;22.50;99.90
48206;DHT22;33995;48.202;16.260;2023-09-19T16:20:35;22.40;99.90
48206;DHT22;33995;48.202;16.260;2023-09-19T16:23:13;22.30;99.90
48206;DHT22;33995;48.202;16.260;2023-09-19T16:25:46;22.30;99.90
48206;DHT22;33995;48.202;16.260;2023-09-19T16:28:20;22.20;99.90
48206;DHT22;33995;48.202;16.260;2023-09-19T16:30:53;22.10;99.90
48206;DHT22;33995;48.202;16.260;2023-09-19T16:33:28;22.00;99.90